createdAt,value
2022-09-20T00:00:34.883Z,49665.22
2022-09-20T00:03:01.503Z,49667.19
2022-09-20T00:05:28.194Z,49635.31
2022-09-20T00:07:54.798Z,49653.25
2022-09-20T00:10:24.506Z,49649.25
2022-09-20T00:12:51.287Z,49643.28
2022-09-20T00:15:17.930Z,49617.38
2022-09-20T00:17:44.605Z,49645.28
2022-09-20T00:20:11.294Z,49633.31
2022-09-20T00:22:37.873Z,49651.25
2022-09-20T00:25:04.869Z,49621.34
2022-09-20T00:27:31.617Z,49673.19
2022-09-20T00:29:58.773Z,49649.25
2022-09-20T00:32:25.342Z,49635.31
2022-09-20T00:35:13.223Z,49647.25
2022-09-20T00:37:43.521Z,49653.25
2022-09-20T00:40:17.414Z,49659.22
2022-09-20T00:42:44.065Z,49635.31
2022-09-20T00:45:21.739Z,49643.28
2022-09-20T00:48:03.049Z,49639.28
2022-09-20T00:50:35.261Z,49619.34
2022-09-20T00:53:18.859Z,49639.28
2022-09-20T00:55:51.829Z,49691.13
2022-09-20T00:58:20.438Z,49643.28
2022-09-20T01:00:49.433Z,49665.22
2022-09-20T01:03:20.657Z,49643.28
2022-09-20T01:05:47.281Z,49685.13
2022-09-20T01:08:13.941Z,49681.16
2022-09-20T01:10:40.761Z,49643.28
2022-09-20T01:13:07.909Z,49631.31
2022-09-20T01:15:37.139Z,49671.19
2022-09-20T01:18:07.380Z,49655.25
2022-09-20T01:20:41.985Z,49661.22
2022-09-20T01:23:27.673Z,49689.13
2022-09-20T01:26:31.189Z,49675.19
2022-09-20T01:29:31.678Z,49689.13
2022-09-20T01:32:03.588Z,49691.13
2022-09-20T01:34:42.851Z,49679.16
2022-09-20T01:37:19.331Z,49679.16
2022-09-20T01:40:00.411Z,49643.28
2022-09-20T01:42:36.257Z,49655.25
2022-09-20T01:45:18.947Z,49671.19
2022-09-20T01:47:57.483Z,49647.25
2022-09-20T01:50:37.581Z,49681.16
2022-09-20T01:53:04.222Z,49637.28
2022-09-20T01:55:53.091Z,49667.19
2022-09-20T01:58:41.467Z,49667.19
2022-09-20T02:01:26.814Z,49673.19
2022-09-20T02:04:30.594Z,49645.28
2022-09-20T02:07:28.138Z,49663.22
2022-09-20T02:10:28.586Z,49697.09
2022-09-20T02:12:59.026Z,49669.19
2022-09-20T02:15:28.651Z,49613.38
2022-09-20T02:18:18.507Z,49675.19
2022-09-20T02:21:01.134Z,49679.16
2022-09-20T02:23:33.708Z,49651.25
2022-09-20T02:26:21.999Z,49675.19
2022-09-20T02:29:09.680Z,49697.09
2022-09-20T02:31:48.483Z,49653.25
2022-09-20T02:34:42.029Z,49681.16
2022-09-20T02:37:22.892Z,49655.25
2022-09-20T02:39:58.552Z,49675.19
2022-09-20T02:42:53.373Z,49705.06
2022-09-20T02:45:35.464Z,49647.25
2022-09-20T02:48:05.042Z,49703.09
2022-09-20T02:50:42.562Z,49673.19
2022-09-20T02:53:40.785Z,49683.16
2022-09-20T02:56:50.410Z,49697.09
2022-09-20T02:59:17.049Z,49659.22
2022-09-20T03:02:06.285Z,49681.16
2022-09-20T03:05:14.449Z,49659.22
2022-09-20T03:08:03.276Z,49683.16
2022-09-20T03:10:44.465Z,49671.19
2022-09-20T03:13:29.227Z,49651.25
2022-09-20T03:15:55.826Z,49679.16
2022-09-20T03:18:53.520Z,49657.22
2022-09-20T03:21:56.487Z,49671.19
2022-09-20T03:25:07.399Z,49655.25
2022-09-20T03:28:06.195Z,49681.16
2022-09-20T03:30:45.443Z,49671.19
2022-09-20T03:33:34.824Z,49685.13
2022-09-20T03:36:04.391Z,49721.03
2022-09-20T03:39:08.326Z,49695.09
2022-09-20T03:41:40.982Z,49711.06
2022-09-20T03:44:15.225Z,49671.19
2022-09-20T03:46:46.911Z,49675.19
2022-09-20T03:49:42.103Z,49689.13
2022-09-20T03:52:36.540Z,49703.09
2022-09-20T03:55:14.077Z,49697.09
2022-09-20T03:57:46.300Z,49693.13
2022-09-20T04:00:23.959Z,49661.22
2022-09-20T04:03:02.759Z,49681.16
2022-09-20T04:05:50.909Z,49639.28
2022-09-20T04:08:40.318Z,49695.09
2022-09-20T04:11:18.061Z,49681.16
2022-09-20T04:13:55.461Z,49667.19
2022-09-20T04:16:51.433Z,49683.16
2022-09-20T04:19:32.750Z,49705.06
2022-09-20T04:22:01.680Z,49675.19
2022-09-20T04:24:43.114Z,49691.13
2022-09-20T04:27:34.239Z,49683.16
2022-09-20T04:30:18.830Z,49719.03
2022-09-20T04:33:19.439Z,49681.16
2022-09-20T04:36:29.333Z,49693.13
2022-09-20T04:39:10.582Z,49655.25
2022-09-20T04:42:09.801Z,49675.19
2022-09-20T04:44:55.672Z,49653.25
2022-09-20T04:47:50.176Z,49669.19
2022-09-20T04:50:48.144Z,49649.25
2022-09-20T04:53:14.998Z,49669.19
2022-09-20T04:55:45.115Z,49729.00
2022-09-20T04:58:59.470Z,49703.09
2022-09-20T05:01:44.537Z,49693.13
2022-09-20T05:04:55.826Z,49679.16
2022-09-20T05:07:40.619Z,49705.06
2022-09-20T05:10:24.595Z,49697.09
2022-09-20T05:13:06.084Z,49703.09
2022-09-20T05:16:00.278Z,49691.13
2022-09-20T05:18:59.394Z,49683.16
2022-09-20T05:21:52.998Z,49729.00
2022-09-20T05:24:38.309Z,49689.13
2022-09-20T05:27:26.669Z,49691.13
2022-09-20T05:30:04.459Z,49683.16
2022-09-20T05:33:00.850Z,49711.06
2022-09-20T05:35:40.843Z,49687.13
2022-09-20T05:38:23.082Z,49715.03
2022-09-20T05:41:05.783Z,49752.91
2022-09-20T05:43:58.395Z,49683.16
2022-09-20T05:46:50.354Z,49691.13
2022-09-20T05:49:26.086Z,49703.09
2022-09-20T05:52:14.447Z,49689.13
2022-09-20T05:55:20.826Z,49675.19
2022-09-20T05:57:54.766Z,49695.09
2022-09-20T06:00:29.081Z,49703.09
2022-09-20T06:03:30.591Z,49669.19
2022-09-20T06:06:32.298Z,49687.13
2022-09-20T06:09:18.870Z,49740.97
2022-09-20T06:12:11.702Z,49707.06
2022-09-20T06:14:43.818Z,49731.00
2022-09-20T06:17:26.192Z,49717.03
2022-09-20T06:20:17.755Z,49691.13
2022-09-20T06:22:52.296Z,49703.09
2022-09-20T06:25:32.070Z,49687.13
2022-09-20T06:28:16.414Z,49729.00
2022-09-20T06:30:51.677Z,49691.13
2022-09-20T06:33:26.143Z,49691.13
2022-09-20T06:36:27.250Z,49647.25
2022-09-20T06:39:30.771Z,49683.16
2022-09-20T06:41:58.008Z,49703.09
2022-09-20T06:44:25.945Z,49695.09
2022-09-20T06:46:55.779Z,49707.06
2022-09-20T06:49:24.099Z,49707.06
2022-09-20T06:51:50.865Z,49653.25
2022-09-20T06:54:20.286Z,49691.13
2022-09-20T06:56:49.690Z,49701.09
2022-09-20T06:59:16.315Z,49669.19
2022-09-20T07:01:43.402Z,49683.16
2022-09-20T07:04:10.136Z,49683.16
2022-09-20T07:06:36.946Z,49683.16
2022-09-20T07:09:04.976Z,49683.16
2022-09-20T07:11:35.054Z,49701.09
2022-09-20T07:14:01.922Z,49687.13
2022-09-20T07:16:29.132Z,49723.03
2022-09-20T07:18:56.947Z,49667.19
2022-09-20T07:21:24.222Z,49665.22
2022-09-20T07:23:51.373Z,49675.19
2022-09-20T07:26:22.286Z,49637.28
2022-09-20T07:28:49.562Z,49677.16
2022-09-20T07:31:19.514Z,49675.19
2022-09-20T07:33:46.564Z,49717.03
2022-09-20T07:36:14.036Z,49655.25
2022-09-20T07:38:42.103Z,49703.09
2022-09-20T07:41:09.341Z,49675.19
2022-09-20T07:43:36.549Z,49645.28
2022-09-20T07:46:03.543Z,49647.25
2022-09-20T07:48:32.562Z,49663.22
2022-09-20T07:51:05.698Z,49687.13
2022-09-20T07:53:35.320Z,49669.19
2022-09-20T07:56:03.278Z,49667.19
2022-09-20T07:58:30.628Z,49687.13
2022-09-20T08:00:59.966Z,49645.28
2022-09-20T08:03:27.176Z,49635.31
2022-09-20T08:06:00.390Z,49675.19
2022-09-20T08:08:28.972Z,49669.19
2022-09-20T08:11:06.648Z,49635.31
2022-09-20T08:14:06.253Z,49645.28
2022-09-20T08:16:41.959Z,49711.06
2022-09-20T08:19:09.365Z,49667.19
2022-09-20T08:21:39.828Z,49661.22
2022-09-20T08:24:06.742Z,49667.19
2022-09-20T08:26:35.138Z,49667.19
2022-09-20T08:29:01.814Z,49665.22
2022-09-20T08:31:34.188Z,49643.28
2022-09-20T08:34:03.754Z,49651.25
2022-09-20T08:36:36.058Z,49689.13
2022-09-20T08:41:56.611Z,49659.22
2022-09-20T08:44:45.439Z,49665.22
2022-09-20T08:47:21.202Z,49679.16
2022-09-20T08:49:49.313Z,49647.25
2022-09-20T08:52:20.081Z,49673.19
2022-09-20T08:54:46.782Z,49641.28
2022-09-20T08:57:17.498Z,49649.25
2022-09-20T08:59:44.766Z,49657.22
2022-09-20T09:02:20.007Z,49635.31
2022-09-20T09:04:48.909Z,49643.28
2022-09-20T09:07:21.723Z,49631.31
2022-09-20T09:09:51.931Z,49639.28
2022-09-20T09:12:29.889Z,49667.19
2022-09-20T09:15:23.039Z,49651.25
2022-09-20T09:17:50.080Z,49667.19
2022-09-20T09:20:23.726Z,49663.22
2022-09-20T09:23:08.952Z,49627.31
2022-09-20T09:25:40.396Z,49683.16
2022-09-20T09:28:07.295Z,49641.28
2022-09-20T09:30:42.983Z,49637.28
2022-09-20T09:33:28.246Z,49633.31
2022-09-20T09:36:03.868Z,49633.31
2022-09-20T09:38:35.208Z,49647.25
2022-09-20T09:41:05.311Z,49639.28
2022-09-20T09:43:35.699Z,49633.31
2022-09-20T09:46:23.300Z,49621.34
2022-09-20T09:49:10.434Z,49635.31
2022-09-20T09:51:42.429Z,49639.28
2022-09-20T09:54:17.280Z,49663.22
2022-09-20T09:56:49.960Z,49635.31
2022-09-20T09:59:54.993Z,49615.38
2022-09-20T10:02:43.164Z,49587.47
2022-09-20T10:05:12.568Z,49607.41
2022-09-20T10:07:59.580Z,49585.47
2022-09-20T10:10:45.159Z,49609.38
2022-09-20T10:13:47.868Z,49619.34
2022-09-20T10:16:57.082Z,49631.31
2022-09-20T10:19:43.264Z,49621.34
2022-09-20T10:22:34.289Z,49621.34
2022-09-20T10:25:26.216Z,49575.50
2022-09-20T10:28:11.880Z,49623.34
2022-09-20T10:31:11.178Z,49643.28
2022-09-20T10:33:53.116Z,49593.44
2022-09-20T10:36:43.668Z,49595.44
2022-09-20T10:39:14.555Z,49621.34
2022-09-20T10:42:08.846Z,49613.38
2022-09-20T10:45:53.257Z,49601.41
2022-09-20T10:48:21.894Z,49595.44
2022-09-20T10:50:57.045Z,49571.50
2022-09-20T10:53:32.479Z,49571.50
2022-09-20T10:56:33.535Z,49581.47
2022-09-20T10:59:00.112Z,49603.41
2022-09-20T11:02:08.362Z,49575.50
2022-09-20T11:05:01.703Z,49577.50
2022-09-20T11:07:53.944Z,49543.59
2022-09-20T11:10:25.461Z,49559.56
2022-09-20T11:13:01.272Z,49571.50
2022-09-20T11:15:33.491Z,49577.50
2022-09-20T11:18:21.037Z,49567.53
2022-09-20T11:20:51.049Z,49565.53
2022-09-20T11:23:45.387Z,49551.56
2022-09-20T11:26:41.932Z,49555.56
2022-09-20T11:29:32.948Z,49567.53
2022-09-20T11:32:17.786Z,49551.56
2022-09-20T11:34:53.915Z,49621.34
2022-09-20T11:37:23.284Z,49587.47
2022-09-20T11:39:56.273Z,49567.53
2022-09-20T11:42:30.315Z,49595.44
2022-09-20T11:44:57.279Z,49603.41
2022-09-20T11:47:53.872Z,49579.47
2022-09-20T11:50:53.838Z,49609.38
2022-09-20T11:53:49.678Z,49603.41
2022-09-20T11:56:25.740Z,49611.38
2022-09-20T11:58:59.113Z,49563.53
2022-09-20T12:01:32.585Z,49613.38
2022-09-20T12:04:28.219Z,49553.56
2022-09-20T12:07:24.598Z,49599.41
2022-09-20T12:10:20.604Z,49595.44
2022-09-20T12:12:51.134Z,49593.44
2022-09-20T12:15:35.487Z,49623.34
2022-09-20T12:18:36.442Z,49613.38
2022-09-20T12:21:15.322Z,49565.53
2022-09-20T12:23:42.624Z,49603.41
2022-09-20T12:26:20.340Z,49629.31
2022-09-20T12:29:05.070Z,49601.41
2022-09-20T12:31:32.375Z,49613.38
2022-09-20T12:34:03.579Z,49611.38
2022-09-20T12:36:34.316Z,49627.31
2022-09-20T12:39:20.692Z,49595.44
2022-09-20T12:41:58.111Z,49607.41
2022-09-20T12:44:24.771Z,49577.50
2022-09-20T12:46:58.500Z,49599.41
2022-09-20T12:49:57.986Z,49639.28
2022-09-20T12:52:58.685Z,49635.31
2022-09-20T12:55:43.780Z,49631.31
2022-09-20T12:58:19.008Z,49619.34
2022-09-20T13:00:57.948Z,49603.41
2022-09-20T13:03:41.548Z,49619.34
2022-09-20T13:06:09.607Z,49639.28
2022-09-20T13:08:43.313Z,49595.44
2022-09-20T13:11:18.382Z,49585.47
2022-09-20T13:14:11.128Z,49607.41
2022-09-20T13:16:37.772Z,49607.41
2022-09-20T13:19:30.572Z,49567.53
2022-09-20T13:22:00.994Z,49599.41
2022-09-20T13:24:31.387Z,49563.53
2022-09-20T13:27:09.456Z,49597.44
2022-09-20T13:29:42.321Z,49547.59
2022-09-20T13:32:24.950Z,49603.41
2022-09-20T13:35:14.106Z,49567.53
2022-09-20T13:37:56.046Z,49629.31
2022-09-20T13:40:34.553Z,49571.50
2022-09-20T13:43:22.702Z,49571.50
2022-09-20T13:45:54.397Z,49575.50
2022-09-20T13:48:25.410Z,49583.47
2022-09-20T13:50:53.856Z,49581.47
2022-09-20T13:53:40.042Z,49593.44
2022-09-20T13:56:16.726Z,49561.53
2022-09-20T13:58:43.419Z,49619.34
2022-09-20T14:01:24.454Z,49603.41
2022-09-20T14:03:52.842Z,49575.50
2022-09-20T14:06:28.219Z,49561.53
2022-09-20T14:08:57.482Z,49587.47
2022-09-20T14:11:29.651Z,49571.50
2022-09-20T14:13:59.159Z,49609.38
2022-09-20T14:16:31.730Z,49587.47
2022-09-20T14:19:00.737Z,49577.50
2022-09-20T14:21:31.878Z,49597.44
2022-09-20T14:24:02.820Z,49619.34
2022-09-20T14:26:34.840Z,49597.44
2022-09-20T14:29:32.001Z,49617.38
2022-09-20T14:32:02.091Z,49607.41
2022-09-20T14:34:28.899Z,49569.50
2022-09-20T14:37:07.563Z,49581.47
2022-09-20T14:39:45.014Z,49565.53
2022-09-20T14:42:27.370Z,49577.50
2022-09-20T14:44:54.258Z,49607.41
2022-09-20T14:47:29.760Z,49585.47
2022-09-20T14:49:58.401Z,49579.47
2022-09-20T14:52:28.465Z,49581.47
2022-09-20T14:55:13.835Z,49523.66
2022-09-20T14:57:42.245Z,49501.75
2022-09-20T15:00:12.838Z,49479.81
2022-09-20T15:02:43.010Z,49471.84
2022-09-20T15:05:18.608Z,49410.03
2022-09-20T15:07:45.459Z,49473.84
2022-09-20T15:10:13.138Z,49435.97
2022-09-20T15:12:39.709Z,49408.06
2022-09-20T15:15:07.107Z,49471.84
2022-09-20T15:17:33.694Z,49545.59
2022-09-20T15:20:00.392Z,49537.63
2022-09-20T15:22:27.478Z,49517.69
2022-09-20T15:24:54.070Z,49503.72
2022-09-20T15:27:23.044Z,49519.69
2022-09-20T15:29:51.750Z,49519.69
2022-09-20T15:32:18.376Z,49412.03
2022-09-20T15:34:45.064Z,49451.91
2022-09-20T15:37:11.673Z,49414.03
2022-09-20T15:39:38.285Z,49431.97
2022-09-20T15:42:05.282Z,49420.00
2022-09-20T15:44:32.691Z,49416.03
2022-09-20T15:46:59.330Z,49392.09
2022-09-20T15:49:26.733Z,49424.00
2022-09-20T15:51:53.414Z,49404.06
2022-09-20T15:54:19.988Z,49455.88
2022-09-20T15:56:46.571Z,49416.03
2022-09-20T15:59:14.668Z,49414.03
2022-09-20T16:01:43.568Z,49463.88
2022-09-20T16:04:21.087Z,49396.09
2022-09-20T16:06:49.575Z,49499.75
2022-09-20T16:09:16.839Z,49547.59
2022-09-20T16:11:43.511Z,49489.78
2022-09-20T16:14:10.133Z,49523.66
2022-09-20T16:16:40.352Z,49537.63
2022-09-20T16:19:22.262Z,49513.69
2022-09-20T16:21:59.143Z,49547.59
2022-09-20T16:24:31.371Z,49571.50
2022-09-20T16:26:59.061Z,49551.56
2022-09-20T16:29:26.108Z,49551.56
2022-09-20T16:31:54.375Z,49601.41
2022-09-20T16:34:31.974Z,49543.59
2022-09-20T16:37:07.873Z,49563.53
2022-09-20T16:39:34.753Z,49501.75
2022-09-20T16:42:04.926Z,49511.72
2022-09-20T16:44:33.376Z,49531.63
2022-09-20T16:47:00.151Z,49505.72
2022-09-20T16:49:29.857Z,49555.56
2022-09-20T16:51:56.715Z,49519.69
2022-09-20T16:54:23.447Z,49557.56
2022-09-20T16:56:50.927Z,49535.63
2022-09-20T16:59:21.323Z,49555.56
2022-09-20T17:01:48.860Z,49559.56
2022-09-20T17:04:18.369Z,49587.47
2022-09-20T17:06:45.976Z,49591.44
2022-09-20T17:09:14.089Z,49579.47
2022-09-20T17:11:46.267Z,49543.59
2022-09-20T17:14:13.873Z,49579.47
2022-09-20T17:16:41.575Z,49587.47
2022-09-20T17:19:13.272Z,49583.47
2022-09-20T17:21:45.206Z,49615.38
2022-09-20T17:24:13.773Z,49559.56
2022-09-20T17:26:44.389Z,49613.38
2022-09-20T17:29:17.546Z,49603.41
2022-09-20T17:31:51.434Z,49599.41
2022-09-20T17:34:21.780Z,49595.44
2022-09-20T17:36:50.325Z,49583.47
2022-09-20T17:39:17.379Z,49591.44
2022-09-20T17:41:47.046Z,49615.38
2022-09-20T17:44:14.553Z,49579.47
2022-09-20T17:46:46.228Z,49643.28
2022-09-20T17:49:15.560Z,49605.41
2022-09-20T17:51:45.447Z,49595.44
2022-09-20T17:54:14.002Z,49633.31
2022-09-20T17:56:43.531Z,49641.28
2022-09-20T17:59:12.156Z,49615.38
2022-09-20T18:01:40.311Z,49597.44
2022-09-20T18:04:08.232Z,49601.41
2022-09-20T18:06:37.599Z,49611.38
2022-09-20T18:09:07.223Z,49627.31
2022-09-20T18:11:41.710Z,49647.25
2022-09-20T18:14:15.866Z,49599.41
2022-09-20T18:16:44.277Z,49623.34
2022-09-20T18:19:12.405Z,49639.28
2022-09-20T18:21:40.885Z,49633.31
2022-09-20T18:24:09.782Z,49647.25
2022-09-20T18:26:36.931Z,49661.22
2022-09-20T18:29:12.690Z,49613.38
2022-09-20T18:31:45.469Z,49609.38
2022-09-20T18:34:18.880Z,49627.31
2022-09-20T18:36:53.049Z,49629.31
2022-09-20T18:39:21.342Z,49627.31
2022-09-20T18:41:49.647Z,49631.31
2022-09-20T18:44:18.420Z,49599.41
2022-09-20T18:46:46.474Z,49635.31
2022-09-20T18:49:15.123Z,49651.25
2022-09-20T18:51:43.770Z,49603.41
2022-09-20T18:54:11.749Z,49675.19
2022-09-20T18:56:39.363Z,49641.28
2022-09-20T18:59:18.175Z,49587.47
2022-09-20T19:01:50.863Z,49641.28
2022-09-20T19:04:36.092Z,49675.19
2022-09-20T19:07:21.146Z,49629.31
2022-09-20T19:10:06.103Z,49653.25
2022-09-20T19:12:44.939Z,49637.28
2022-09-20T19:15:23.713Z,49659.22
2022-09-20T19:18:08.870Z,49657.22
2022-09-20T19:21:12.787Z,49627.31
2022-09-20T19:24:08.041Z,49623.34
2022-09-20T19:26:38.754Z,49635.31
2022-09-20T19:29:37.971Z,49669.19
2022-09-20T19:32:05.172Z,49641.28
2022-09-20T19:34:32.843Z,49643.28
2022-09-20T19:37:18.689Z,49647.25
2022-09-20T19:40:11.675Z,49641.28
2022-09-20T19:43:19.340Z,49621.34
2022-09-20T19:45:52.050Z,49643.28
2022-09-20T19:48:29.931Z,49631.31
2022-09-20T19:50:57.393Z,49659.22
2022-09-20T19:53:28.159Z,49641.28
2022-09-20T19:56:00.131Z,49639.28
2022-09-20T19:58:27.091Z,49635.31
2022-09-20T20:00:54.171Z,49647.25
2022-09-20T20:03:23.595Z,49627.31
2022-09-20T20:06:02.384Z,49629.31
2022-09-20T20:08:48.770Z,49597.44
2022-09-20T20:11:25.799Z,49657.22
2022-09-20T20:14:35.168Z,49643.28
2022-09-20T20:17:17.129Z,49655.25
2022-09-20T20:19:50.707Z,49623.34
2022-09-20T20:22:38.764Z,49647.25
2022-09-20T20:25:17.796Z,49651.25
2022-09-20T20:27:44.509Z,49625.34
2022-09-20T20:30:12.245Z,49631.31
2022-09-20T20:32:38.828Z,49629.31
2022-09-20T20:35:06.021Z,49687.13
2022-09-20T20:37:34.667Z,49637.28
2022-09-20T20:40:01.954Z,49629.31
2022-09-20T20:42:28.597Z,49687.13
2022-09-20T20:44:55.238Z,49673.19
2022-09-20T20:47:21.940Z,49655.25
2022-09-20T20:49:52.565Z,49643.28
2022-09-20T20:52:19.474Z,49661.22
2022-09-20T20:54:46.095Z,49701.09
2022-09-20T20:57:12.707Z,49639.28
2022-09-20T20:59:39.327Z,49649.25
2022-09-20T21:02:07.941Z,49655.25
2022-09-20T21:04:35.355Z,49685.13
2022-09-20T21:07:01.944Z,49683.16
2022-09-20T21:09:28.563Z,49667.19
2022-09-20T21:11:55.161Z,49675.19
2022-09-20T21:14:21.810Z,49675.19
2022-09-20T21:16:48.686Z,49671.19
2022-09-20T21:19:15.687Z,49663.22
2022-09-20T21:21:44.688Z,49643.28
2022-09-20T21:24:15.166Z,49685.13
2022-09-20T21:26:42.090Z,49659.22
2022-09-20T21:29:12.336Z,49639.28
2022-09-20T21:31:42.518Z,49687.13
2022-09-20T21:34:11.197Z,49679.16
2022-09-20T21:36:39.544Z,49635.31
2022-09-20T21:39:06.491Z,49695.09
2022-09-20T21:41:35.889Z,49675.19
2022-09-20T21:44:04.108Z,49671.19
2022-09-20T21:46:36.213Z,49679.16
2022-09-20T21:49:05.293Z,49627.31
2022-09-20T21:51:32.793Z,49667.19
2022-09-20T21:54:01.440Z,49665.22
2022-09-20T21:56:31.321Z,49687.13
2022-09-20T21:58:58.588Z,49643.28
2022-09-20T22:01:27.934Z,49647.25
2022-09-20T22:03:58.916Z,49681.16
2022-09-20T22:06:27.055Z,49665.22
2022-09-20T22:09:02.804Z,49679.16
2022-09-20T22:11:36.036Z,49679.16
2022-09-20T22:14:02.724Z,49669.19
2022-09-20T22:16:31.927Z,49691.13
2022-09-20T22:18:59.921Z,49671.19
2022-09-20T22:21:27.512Z,49649.25
2022-09-20T22:24:02.712Z,49651.25
2022-09-20T22:26:32.263Z,49701.09
2022-09-20T22:28:59.163Z,49681.16
2022-09-20T22:31:31.537Z,49693.13
2022-09-20T22:34:00.995Z,49703.09
2022-09-20T22:36:36.615Z,49707.06
2022-09-20T22:39:07.382Z,49677.16
2022-09-20T22:41:34.807Z,49693.13
2022-09-20T22:44:01.913Z,49717.03
2022-09-20T22:46:30.839Z,49655.25
2022-09-20T22:48:57.711Z,49679.16
2022-09-20T22:51:27.241Z,49703.09
2022-09-20T22:53:54.457Z,49723.03
2022-09-20T22:56:24.710Z,49675.19
2022-09-20T22:58:54.133Z,49683.16
2022-09-20T23:01:24.057Z,49659.22
2022-09-20T23:04:08.603Z,49719.03
2022-09-20T23:06:41.177Z,49713.06
2022-09-20T23:09:11.342Z,49679.16
2022-09-20T23:11:39.838Z,49711.06
2022-09-20T23:14:06.946Z,49679.16
2022-09-20T23:16:37.749Z,49663.22
2022-09-20T23:19:06.791Z,49681.16
2022-09-20T23:21:34.950Z,49703.09
2022-09-20T23:24:04.683Z,49691.13
2022-09-20T23:26:33.179Z,49695.09
2022-09-20T23:29:08.981Z,49667.19
2022-09-20T23:31:37.935Z,49683.16
2022-09-20T23:34:06.361Z,49675.19
2022-09-20T23:36:36.095Z,49705.06
2022-09-20T23:39:03.149Z,49701.09
2022-09-20T23:41:30.332Z,49713.06
2022-09-20T23:43:57.502Z,49719.03
2022-09-20T23:46:25.863Z,49731.00
2022-09-20T23:48:53.004Z,49699.09
2022-09-20T23:51:25.483Z,49675.19
2022-09-20T23:53:53.482Z,49727.00
2022-09-20T23:56:20.781Z,49685.13
2022-09-20T23:58:48.658Z,49703.09
